Time;durP1;ratioP1;P1;durP2;ratioP2;P2;SDS_P1;SDS_P2;PMS_P1;PMS_P2;Temp;Humidity;BMP_temperature;BMP_pressure;BME280_temperature;BME280_humidity;BME280_pressure;Samples;Min_cycle;Max_cycle;Signal;HPM_P1;HPM_P2
2022/11/11 00:00:15;;;;;;;9.13;4.53;;;;;;;8.17;100.00;102632.72;1024765;28;20137;-83
2022/11/11 00:01:10;;;;;;;13.57;5.03;;;;;;;8.14;100.00;102637.50;1034487;28;20423;-82
2022/11/11 00:02:00;;;;;;;10.55;5.50;;;;;;;8.12;100.00;102642.97;1034733;28;20517;-83
2022/11/11 00:02:50;;;;;;;8.93;5.32;;;;;;;8.14;100.00;102640.16;1025769;28;20318;-82
2022/11/11 00:03:41;;;;;;;6.78;6.07;;;;;;;8.09;100.00;102637.97;1029107;28;20345;-83
2022/11/11 00:04:31;;;;;;;10.20;5.30;;;;;;;8.07;100.00;102640.78;1027305;28;20416;-83
2022/11/11 00:05:21;;;;;;;11.15;4.68;;;;;;;8.11;100.00;102640.47;1029724;28;20085;-84
2022/11/11 00:06:14;;;;;;;7.75;5.75;;;;;;;8.11;100.00;102641.31;1031283;28;20412;-83
2022/11/11 00:07:03;;;;;;;8.55;5.57;;;;;;;8.13;100.00;102644.63;1027051;28;20133;-83
2022/11/11 00:07:58;;;;;;;6.78;4.93;;;;;;;8.08;100.00;102638.97;1027389;28;20483;-83
2022/11/11 00:08:48;;;;;;;9.68;5.00;;;;;;;8.08;100.00;102646.94;1031628;28;20413;-84
2022/11/11 00:09:38;;;;;;;7.45;5.47;;;;;;;8.10;100.00;102639.66;1029070;28;20346;-83
2022/11/11 00:10:29;;;;;;;6.85;5.00;;;;;;;8.09;100.00;102637.97;1030779;28;20320;-83
2022/11/11 00:11:19;;;;;;;7.50;5.05;;;;;;;8.13;100.00;102644.63;1031312;28;20284;-83
2022/11/11 00:12:08;;;;;;;11.02;5.70;;;;;;;8.05;100.00;102641.94;1024488;28;20089;-83
2022/11/11 00:12:59;;;;;;;12.75;5.35;;;;;;;8.05;100.00;102641.94;1026395;28;20281;-83
2022/11/11 00:13:49;;;;;;;10.23;5.65;;;;;;;8.01;100.00;102643.25;1025844;28;20286;-83
2022/11/11 00:14:39;;;;;;;6.88;4.63;;;;;;;8.02;100.00;102642.25;1026918;28;20417;-84
2022/11/11 00:15:30;;;;;;;8.40;5.78;;;;;;;8.07;100.00;102646.09;1031176;28;20289;-84
2022/11/11 00:16:20;;;;;;;9.43;5.22;;;;;;;8.02;100.00;102647.56;1029708;28;20385;-83
2022/11/11 00:25:38;;;;;;;8.27;4.55;;;;;;;8.01;100.00;102646.72;1031410;28;20289;-83
2022/11/11 00:26:28;;;;;;;8.15;6.22;;;;;;;8.00;100.00;102654.84;1034209;28;20722;-83
2022/11/11 00:27:34;;;;;;;7.78;5.15;;;;;;;8.07;100.00;102650.56;1031736;28;20349;-83
2022/11/11 00:28:24;;;;;;;11.07;6.13;;;;;;;8.11;100.00;102657.22;1026994;28;20294;-83
2022/11/11 00:29:15;;;;;;;12.55;7.07;;;;;;;8.06;100.00;102662.19;1029715;28;20081;-83
2022/11/11 00:30:06;;;;;;;10.00;6.05;;;;;;;8.05;100.00;102657.84;1031800;28;20104;-83
2022/11/11 00:31:14;;;;;;;12.90;5.47;;;;;;;8.06;100.00;102659.53;1035159;28;20117;-83
2022/11/11 00:33:15;;;;;;;6.03;4.85;;;;;;;8.02;100.00;102676.75;1027386;28;20846;-83
2022/11/11 00:34:05;;;;;;;5.90;4.95;;;;;;;8.03;100.00;102681.06;1031087;28;20297;-82
2022/11/11 00:36:06;;;;;;;8.05;4.93;;;;;;;7.97;100.00;102682.53;1025962;28;20372;-83
2022/11/11 00:36:57;;;;;;;8.27;4.50;;;;;;;8.02;100.00;102685.53;1029716;28;20746;-83
2022/11/11 00:37:49;;;;;;;10.60;5.30;;;;;;;7.99;100.00;102685.03;1031306;28;20308;-83
2022/11/11 00:38:45;;;;;;;8.20;5.63;;;;;;;7.93;100.00;102681.13;1030509;28;20332;-83
2022/11/11 00:39:36;;;;;;;10.38;5.57;;;;;;;7.96;100.00;102680.03;1031396;28;20288;-83
2022/11/11 00:40:26;;;;;;;8.18;5.45;;;;;;;7.94;100.00;102681.97;1031833;28;20289;-83
2022/11/11 00:41:23;;;;;;;8.85;4.95;;;;;;;7.94;100.00;102684.63;1030807;28;20281;-84
2022/11/11 00:42:13;;;;;;;11.82;5.10;;;;;;;7.91;100.00;102688.41;1030686;28;20289;-84
2022/11/11 00:43:03;;;;;;;8.77;5.82;;;;;;;7.96;100.00;102690.63;1035426;28;20288;-83
2022/11/11 00:43:53;;;;;;;8.38;4.85;;;;;;;7.92;100.00;102683.94;1031601;28;20690;-83
2022/11/11 00:44:43;;;;;;;10.07;5.82;;;;;;;7.94;100.00;102687.28;1026376;28;20876;-83
2022/11/11 00:45:34;;;;;;;10.85;5.32;;;;;;;7.95;100.00;102684.50;1026547;28;20293;-84
2022/11/11 00:51:00;;;;;;;9.32;5.20;;;;;;;7.92;100.00;102683.94;1031422;28;20284;-83
2022/11/11 00:51:50;;;;;;;11.13;5.15;;;;;;;7.89;100.00;102686.91;1031420;28;20320;-83
2022/11/11 00:52:44;;;;;;;5.70;5.07;;;;;;;7.89;100.00;102684.25;1031502;28;20053;-83
2022/11/11 00:53:37;;;;;;;7.40;5.28;;;;;;;7.87;100.00;102681.75;1028814;28;20906;-83
2022/11/11 00:54:27;;;;;;;7.13;5.60;;;;;;;7.89;100.00;102682.44;1028709;28;20294;-83
2022/11/11 00:55:17;;;;;;;8.20;5.28;;;;;;;7.82;100.00;102683.22;1031064;28;20408;-83
2022/11/11 00:56:07;;;;;;;12.88;5.05;;;;;;;7.84;100.00;102681.22;1031301;28;20810;-83
2022/11/11 00:56:58;;;;;;;6.20;4.60;;;;;;;7.81;100.00;102692.97;1031398;28;20347;-83
2022/11/11 00:57:48;;;;;;;8.10;5.07;;;;;;;7.86;100.00;102680.09;1033795;28;20292;-83
2022/11/11 00:58:38;;;;;;;10.85;4.75;;;;;;;7.86;100.00;102679.25;1031588;28;20551;-83
2022/11/11 00:59:28;;;;;;;13.65;6.55;;;;;;;7.84;100.00;102681.22;1031165;28;20300;-83
2022/11/11 01:00:18;;;;;;;10.73;5.20;;;;;;;7.87;100.00;102675.63;1030786;28;20096;-83
2022/11/11 01:01:08;;;;;;;9.25;5.43;;;;;;;7.87;100.00;102680.91;1031521;28;20735;-83
2022/11/11 01:01:58;;;;;;;9.48;5.38;;;;;;;7.89;100.00;102676.28;1031518;28;20798;-83
2022/11/11 01:02:48;;;;;;;8.52;5.60;;;;;;;7.93;100.00;102675.81;1031297;28;20328;-83
2022/11/11 01:03:39;;;;;;;6.05;5.10;;;;;;;7.91;100.00;102676.97;1023278;29;20305;-83
2022/11/11 01:04:29;;;;;;;17.25;7.07;;;;;;;7.94;100.00;102668.69;1024722;28;20293;-83
2022/11/11 01:05:20;;;;;;;10.15;5.60;;;;;;;7.98;100.00;102673.56;1034856;28;20072;-84
2022/11/11 01:06:11;;;;;;;9.60;5.88;;;;;;;8.01;100.00;102667.94;1031102;28;20106;-83
2022/11/11 01:07:01;;;;;;;;;;;;;;;8.04;100.00;102667.63;1031924;28;20324;-84
2022/11/11 01:07:52;;;;;;;11.45;5.85;;;;;;;8.11;100.00;102667.00;1030953;28;20004;-82
2022/11/11 01:08:42;;;;;;;8.65;5.85;;;;;;;8.12;100.00;102664.19;1025656;28;20318;-83
2022/11/11 01:09:33;;;;;;;12.48;5.85;;;;;;;8.15;100.00;102663.88;1025397;28;20345;-82
2022/11/11 01:10:38;;;;;;;14.82;6.05;;;;;;;8.16;100.00;102660.25;1030487;28;20100;-83
2022/11/11 01:11:28;;;;;;;10.00;6.40;;;;;;;8.18;100.00;102666.22;1035330;28;20713;-83
2022/11/11 01:12:18;;;;;;;6.82;5.15;;;;;;;8.20;100.00;102658.94;1031095;28;20427;-83
2022/11/11 01:13:18;;;;;;;12.60;5.95;;;;;;;8.22;100.00;102664.97;1031164;28;20292;-83
2022/11/11 01:14:08;;;;;;;8.13;5.70;;;;;;;8.22;100.00;102661.47;1031070;28;20316;-82
2022/11/11 01:14:58;;;;;;;8.70;5.82;;;;;;;8.21;100.00;102663.25;1031221;28;20411;-83
2022/11/11 01:15:51;;;;;;;10.18;6.72;;;;;;;8.21;100.00;102663.25;1035187;28;20057;-83
2022/11/11 01:16:41;;;;;;;8.93;5.32;;;;;;;8.22;100.00;102661.47;1028572;28;20471;-83
2022/11/11 01:17:31;;;;;;;26.27;6.90;;;;;;;8.24;100.00;102668.28;1031380;28;20289;-83
2022/11/11 01:18:23;;;;;;;11.38;6.13;;;;;;;8.25;100.00;102667.28;1034904;28;20296;-83
2022/11/11 01:19:14;;;;;;;11.98;6.35;;;;;;;8.29;100.00;102666.00;1031623;28;20814;-83
2022/11/11 01:20:04;;;;;;;8.27;6.47;;;;;;;8.28;100.00;102664.31;1026856;28;20668;-84
2022/11/11 01:21:04;;;;;;;14.23;6.57;;;;;;;8.31;100.00;102668.50;1030902;28;20343;-83
2022/11/11 01:21:54;;;;;;;10.95;5.78;;;;;;;8.31;100.00;102663.19;1030718;28;20414;-83
2022/11/11 01:22:44;;;;;;;14.30;5.88;;;;;;;8.42;100.00;102667.41;1031423;28;20359;-83
2022/11/11 01:23:37;;;;;;;13.75;7.40;;;;;;;8.41;100.00;102668.41;1035450;28;20372;-83
2022/11/11 01:24:27;;;;;;;9.90;6.25;;;;;;;8.41;100.00;102665.75;1027166;28;20130;-84
2022/11/11 01:25:17;;;;;;;16.30;7.30;;;;;;;8.41;100.00;102663.09;1027209;28;20640;-83
2022/11/11 01:26:08;;;;;;;14.23;6.28;;;;;;;8.41;100.00;102668.41;1032766;28;20189;-83
2022/11/11 01:26:58;;;;;;;14.98;8.05;;;;;;;8.43;100.00;102667.25;1034925;28;20113;-83
2022/11/11 01:27:49;;;;;;;16.65;7.40;;;;;;;8.43;100.00;102671.72;1035147;28;20351;-84
2022/11/11 01:28:39;;;;;;;11.98;6.82;;;;;;;8.44;100.00;102665.44;1025306;28;20058;-83
2022/11/11 01:29:29;;;;;;;17.17;6.70;;;;;;;8.48;100.00;102677.41;1022977;28;20669;-83
2022/11/11 01:30:20;;;;;;;11.40;6.75;;;;;;;8.47;100.00;102670.41;1025277;28;20157;-83
2022/11/11 01:31:14;;;;;;;14.38;10.05;;;;;;;8.48;100.00;102672.09;1025693;28;20063;-83
2022/11/11 01:32:04;;;;;;;14.98;9.52;;;;;;;8.50;100.00;102670.97;1025273;28;20109;-84
2022/11/11 01:32:55;;;;;;;10.52;6.55;;;;;;;8.51;100.00;102677.94;1026897;28;20903;-82
2022/11/11 01:33:46;;;;;;;11.25;6.95;;;;;;;8.55;100.00;102676.63;1030734;28;20361;-83
2022/11/11 01:34:36;;;;;;;14.63;8.10;;;;;;;8.54;100.00;102679.44;1027595;28;20054;-84
2022/11/11 01:35:26;;;;;;;10.35;8.43;;;;;;;8.56;100.00;102677.47;1030544;28;20292;-83
2022/11/11 01:36:19;;;;;;;12.45;9.02;;;;;;;8.60;100.00;102678.81;1029789;28;20357;-83
2022/11/11 01:37:09;;;;;;;15.95;9.32;;;;;;;8.55;100.00;102673.16;1031344;28;20304;-83
2022/11/11 01:37:58;;;;;;;13.18;7.93;;;;;;;8.65;100.00;102676.50;1031624;28;20324;-83
2022/11/11 01:38:51;;;;;;;10.20;8.25;;;;;;;8.57;100.00;102673.81;1031316;28;20304;-83
2022/11/11 01:39:40;;;;;;;13.70;8.15;;;;;;;8.59;100.00;102677.16;1031041;28;20364;-83
2022/11/11 01:40:39;;;;;;;17.42;7.60;;;;;;;8.59;100.00;102679.81;1027517;28;20338;-83
2022/11/11 01:41:34;;;;;;;11.35;7.97;;;;;;;8.62;100.00;102682.97;1029647;28;20799;-83
2022/11/11 01:42:24;;;;;;;9.77;7.57;;;;;;;8.63;100.00;102678.50;1031065;28;20296;-83
2022/11/11 01:43:17;;;;;;;13.57;7.95;;;;;;;8.61;100.00;102677.81;1030864;28;20308;-83
2022/11/11 01:44:10;;;;;;;14.10;8.98;;;;;;;8.61;100.00;102675.16;1035186;28;20284;-83
2022/11/11 01:45:01;;;;;;;18.73;9.98;;;;;;;8.66;100.00;102678.16;1033522;28;20311;-83
2022/11/11 01:45:59;;;;;;;15.88;9.25;;;;;;;8.65;100.00;102677.34;1029369;28;20294;-83
2022/11/11 01:46:54;;;;;;;17.15;9.55;;;;;;;8.67;100.00;102678.00;1021548;29;20354;-83
2022/11/11 01:49:34;;;;;;;13.88;9.13;;;;;;;8.65;100.00;102676.50;1030583;28;20332;-83
2022/11/11 01:50:25;;;;;;;18.65;9.55;;;;;;;8.64;100.00;102680.16;1034835;28;20319;-84
2022/11/11 01:51:35;;;;;;;15.30;8.77;;;;;;;8.63;100.00;102679.31;1031453;28;20688;-83
2022/11/11 01:52:26;;;;;;;15.23;8.18;;;;;;;8.71;100.00;102677.69;1031614;28;20396;-82
2022/11/11 01:53:17;;;;;;;13.85;9.50;;;;;;;8.66;100.00;102671.03;1031105;28;20308;-83
2022/11/11 01:54:12;;;;;;;12.32;7.97;;;;;;;8.64;100.00;102680.16;1031209;28;20050;-83
2022/11/11 01:55:14;;;;;;;12.60;9.02;;;;;;;8.67;100.00;102680.66;1035209;28;20125;-84
2022/11/11 01:56:07;;;;;;;14.82;8.73;;;;;;;8.67;100.00;102677.19;1030882;28;20345;-83
2022/11/11 01:57:05;;;;;;;15.40;8.68;;;;;;;8.67;100.00;102685.16;1025995;28;20305;-84
2022/11/11 01:58:05;;;;;;;15.15;8.18;;;;;;;8.65;100.00;102676.50;1023228;29;20746;-83
2022/11/11 01:59:00;;;;;;;15.50;8.63;;;;;;;8.68;100.00;102676.19;1023585;29;20301;-83
2022/11/11 01:59:59;;;;;;;11.30;8.90;;;;;;;8.66;100.00;102679.00;1028158;28;20495;-83
2022/11/11 02:00:50;;;;;;;11.95;8.63;;;;;;;8.66;100.00;102672.84;1031116;28;20771;-83
2022/11/11 02:01:40;;;;;;;13.20;9.65;;;;;;;8.67;100.00;102669.22;1031990;28;20366;-84
2022/11/11 02:02:44;;;;;;;17.40;10.32;;;;;;;8.77;100.00;102666.44;1027614;28;20050;-84
2022/11/11 02:03:39;;;;;;;12.23;8.95;;;;;;;8.68;100.00;102670.88;1027536;28;20398;-83
2022/11/11 02:05:42;;;;;;;19.60;9.30;;;;;;;8.67;100.00;102674.53;1036170;28;20295;-82
2022/11/11 02:06:33;;;;;;;14.50;8.63;;;;;;;8.67;100.00;102677.19;1029824;28;20723;-83
2022/11/11 02:07:25;;;;;;;15.70;8.50;;;;;;;8.70;100.00;102679.53;1032033;28;20312;-83
2022/11/11 02:08:31;;;;;;;18.73;8.68;;;;;;;8.72;100.00;102682.84;1031739;28;20046;-83
2022/11/11 02:09:23;;;;;;;11.82;9.15;;;;;;;8.73;100.00;102673.06;1027874;28;20874;-83
2022/11/11 02:10:14;;;;;;;18.50;9.30;;;;;;;8.69;100.00;102680.50;1028110;28;20660;-82
2022/11/11 02:11:13;;;;;;;19.48;9.35;;;;;;;8.76;100.00;102668.25;1028006;28;20310;-83
2022/11/11 02:14:38;;;;;;;12.25;9.77;;;;;;;8.76;100.00;102678.03;1032269;28;20289;-83
2022/11/11 02:15:29;;;;;;;20.98;9.35;;;;;;;8.78;100.00;102676.09;1029249;28;20305;-83
2022/11/11 02:16:19;;;;;;;11.32;8.90;;;;;;;8.78;100.00;102682.22;1027760;28;20301;-84
2022/11/11 02:17:15;;;;;;;16.75;9.57;;;;;;;8.71;100.00;102681.19;1028197;28;20699;-84
2022/11/11 02:18:06;;;;;;;15.95;9.38;;;;;;;8.72;100.00;102680.19;1028125;28;20124;-83
2022/11/11 02:18:56;;;;;;;17.25;9.52;;;;;;;8.72;100.00;102672.22;1031845;28;20840;-83
2022/11/11 02:19:49;;;;;;;17.38;9.85;;;;;;;8.69;100.00;102680.50;1032010;28;20404;-83
2022/11/11 02:20:42;;;;;;;17.88;9.80;;;;;;;8.70;100.00;102679.53;1032443;28;20186;-84
2022/11/11 02:21:39;;;;;;;16.00;10.00;;;;;;;8.74;100.00;102672.06;1029671;28;20289;-83
2022/11/11 02:22:56;;;;;;;15.07;10.10;;;;;;;8.74;100.00;102667.56;1023500;29;20682;-83
2022/11/11 02:23:58;;;;;;;18.23;9.20;;;;;;;8.74;100.00;102664.91;1020907;28;20294;-83
2022/11/11 02:24:48;;;;;;;15.13;9.00;;;;;;;8.77;100.00;102663.78;1032257;28;20288;-83
2022/11/11 02:25:39;;;;;;;14.45;11.48;;;;;;;8.76;100.00;102675.38;1032090;28;20581;-83
2022/11/11 02:26:30;;;;;;;;;;;;;;;8.75;100.00;102671.91;1032381;28;20448;-83
2022/11/11 02:27:21;;;;;;;17.88;10.07;;;;;;;8.74;100.00;102675.53;1023994;29;20013;-83
2022/11/11 02:28:12;;;;;;;24.52;11.65;;;;;;;8.78;100.00;102679.56;1025520;28;20454;-83
2022/11/11 02:29:08;;;;;;;14.98;10.98;;;;;;;8.71;100.00;102673.22;1031649;28;20339;-84
2022/11/11 02:30:00;;;;;;;16.52;11.05;;;;;;;8.76;100.00;102665.59;1031855;28;20727;-83
2022/11/11 02:30:50;;;;;;;17.98;12.32;;;;;;;8.71;100.00;102667.91;1031654;28;20332;-83
2022/11/11 02:31:40;;;;;;;18.10;10.52;;;;;;;8.74;100.00;102664.91;1026521;28;20290;-83
2022/11/11 02:32:31;;;;;;;20.25;11.23;;;;;;;8.71;100.00;102664.41;1031524;28;20698;-83
2022/11/11 02:33:21;;;;;;;20.42;11.57;;;;;;;8.69;100.00;102659.25;1030812;28;20324;-83
2022/11/11 02:34:12;;;;;;;18.08;10.70;;;;;;;8.69;100.00;102656.59;1030651;28;20200;-83
2022/11/11 02:35:12;;;;;;;13.00;9.77;;;;;;;8.65;100.00;102660.56;1033690;28;20054;-83
2022/11/11 02:36:04;;;;;;;17.75;9.98;;;;;;;8.68;100.00;102660.25;1035684;28;20781;-83
2022/11/11 02:36:54;;;;;;;18.50;10.15;;;;;;;8.68;100.00;102660.25;1032203;28;20309;-83
2022/11/11 02:37:50;;;;;;;23.38;12.98;;;;;;;8.66;100.00;102655.09;1027721;28;20400;-83
2022/11/11 02:38:42;;;;;;;17.98;10.88;;;;;;;8.68;100.00;102657.59;1031589;28;20053;-83
2022/11/11 02:39:34;;;;;;;13.90;11.13;;;;;;;8.68;100.00;102661.09;1030558;28;20305;-83
2022/11/11 02:41:57;;;;;;;15.02;10.35;;;;;;;8.71;100.00;102664.41;1028458;28;20386;-83
2022/11/11 02:42:47;;;;;;;16.92;11.68;;;;;;;8.74;100.00;102658.78;1031647;28;20284;-84
2022/11/11 02:43:38;;;;;;;20.42;11.35;;;;;;;8.76;100.00;102664.75;1023822;29;20788;-83
2022/11/11 02:44:28;;;;;;;19.10;11.93;;;;;;;8.73;100.00;102657.94;1027970;28;20290;-83
2022/11/11 02:45:19;;;;;;;17.98;11.55;;;;;;;8.72;100.00;102660.75;1029723;28;20293;-83
2022/11/11 02:46:09;;;;;;;22.75;10.48;;;;;;;8.71;100.00;102669.72;1031455;28;20519;-87
2022/11/11 02:47:00;;;;;;;17.38;9.90;;;;;;;8.67;100.00;102664.72;1036515;28;20061;-86
2022/11/11 02:47:50;;;;;;;17.00;10.25;;;;;;;8.68;100.00;102670.88;1035709;28;20782;-85
2022/11/11 02:48:40;;;;;;;21.35;11.77;;;;;;;8.72;100.00;102677.53;1032680;28;20328;-86
2022/11/11 02:49:31;;;;;;;16.30;12.60;;;;;;;8.76;100.00;102676.22;1035869;28;20482;-86
2022/11/11 02:50:21;;;;;;;17.50;12.10;;;;;;;8.79;100.00;102677.75;1031882;28;20316;-87
2022/11/11 02:51:11;;;;;;;26.27;12.70;;;;;;;8.75;100.00;102682.53;1027813;28;20644;-89
2022/11/11 02:52:01;;;;;;;18.05;11.23;;;;;;;8.76;100.00;102675.38;1030170;28;20286;-87
2022/11/11 02:52:52;;;;;;;18.45;10.70;;;;;;;8.76;100.00;102664.75;1033638;28;20395;-86
2022/11/11 02:53:42;;;;;;;16.80;11.00;;;;;;;8.76;100.00;102673.56;1033018;28;20293;-88
2022/11/11 02:54:32;;;;;;;19.52;11.60;;;;;;;8.77;100.00;102669.94;1036034;28;20049;-89
2022/11/11 02:55:23;;;;;;;16.63;12.05;;;;;;;8.78;100.00;102660.97;1036371;28;20711;-85
2022/11/11 02:57:05;;;;;;;21.30;12.52;;;;;;;8.74;100.00;102654.28;1032149;28;20347;-87
2022/11/11 02:57:23;;;;;;;19.67;11.70;;;;;;;8.77;100.00;102659.31;1036564;28;20346;-88
2022/11/11 02:58:16;;;;;;;15.70;12.90;;;;;;;8.80;100.00;102661.66;1032430;28;20304;-87
2022/11/11 02:59:06;;;;;;;19.10;11.77;;;;;;;8.78;100.00;102657.50;1031958;28;20292;-87
2022/11/11 03:00:01;;;;;;;19.95;12.02;;;;;;;8.80;100.00;102659.00;1036096;28;20372;-87
2022/11/11 03:00:51;;;;;;;18.77;11.93;;;;;;;8.79;100.00;102656.50;1035726;28;20084;-86
2022/11/11 03:01:41;;;;;;;21.25;12.98;;;;;;;8.74;100.00;102648.97;1032198;28;20870;-82
2022/11/11 03:02:32;;;;;;;20.70;12.48;;;;;;;8.74;100.00;102648.97;1027687;28;20050;-83
2022/11/11 03:03:22;;;;;;;19.60;11.77;;;;;;;8.77;100.00;102654.00;1026694;28;20082;-83
2022/11/11 03:04:14;;;;;;;;;;;;;;;8.77;100.00;102654.00;1027894;28;20141;-83
2022/11/11 03:05:04;;;;;;;18.60;12.45;;;;;;;8.76;100.00;102646.16;1032903;28;20387;-86
2022/11/11 03:05:54;;;;;;;18.05;12.05;;;;;;;8.74;100.00;102645.50;1035067;28;20352;-84
2022/11/11 03:06:45;;;;;;;16.92;11.50;;;;;;;8.73;100.00;102639.34;1032579;28;20116;-84
2022/11/11 03:07:35;;;;;;;15.85;12.45;;;;;;;8.74;100.00;102633.03;1031887;28;20300;-84
2022/11/11 03:08:25;;;;;;;19.90;12.10;;;;;;;8.78;100.00;102638.91;1035844;28;20296;-83
2022/11/11 03:09:15;;;;;;;21.83;12.43;;;;;;;8.78;100.00;102638.91;1035994;28;20280;-84
2022/11/11 03:10:06;;;;;;;17.42;11.43;;;;;;;8.74;100.00;102635.69;1028944;28;20356;-84
2022/11/11 03:10:56;;;;;;;20.60;10.93;;;;;;;8.74;100.00;102637.53;1027161;28;20285;-84
2022/11/11 03:11:47;;;;;;;20.70;12.00;;;;;;;8.79;100.00;102630.75;1023398;29;20114;-84
2022/11/11 03:12:37;;;;;;;17.08;11.80;;;;;;;8.72;100.00;102629.72;1027451;28;20077;-83
2022/11/11 03:13:27;;;;;;;15.80;10.98;;;;;;;8.72;100.00;102632.38;1034837;28;20508;-83
2022/11/11 03:14:18;;;;;;;16.52;10.45;;;;;;;8.72;100.00;102629.72;1031676;28;20147;-83
2022/11/11 03:15:09;;;;;;;18.58;11.90;;;;;;;8.75;100.00;102637.34;1025744;28;20046;-84
2022/11/11 03:15:59;;;;;;;21.35;13.07;;;;;;;8.75;100.00;102632.03;1027418;28;20846;-83
2022/11/11 03:17:58;;;;;;;19.83;13.10;;;;;;;8.71;100.00;102625.38;1021999;29;20075;-83
2022/11/11 03:18:49;;;;;;;17.17;12.32;;;;;;;8.69;100.00;102627.38;1035438;28;20300;-82
2022/11/11 03:19:39;;;;;;;15.82;11.10;;;;;;;8.69;100.00;102624.72;1030805;28;20400;-83
2022/11/11 03:21:38;;;;;;;15.35;11.48;;;;;;;8.73;100.00;102636.69;1031074;28;20293;-84
2022/11/11 03:23:03;;;;;;;16.55;12.23;;;;;;;8.74;100.00;102637.53;1033935;28;20382;-83
2022/11/11 03:23:53;;;;;;;14.82;12.60;;;;;;;8.73;100.00;102641.16;1027711;28;20297;-83
2022/11/11 03:25:52;;;;;;;19.75;12.38;;;;;;;8.71;100.00;102644.00;1027678;28;20429;-83
2022/11/11 03:26:47;;;;;;;19.08;12.18;;;;;;;8.73;100.00;102644.66;1029900;28;20292;-84
2022/11/11 03:27:37;;;;;;;24.42;12.75;;;;;;;8.75;100.00;102647.97;1031470;28;20413;-84
2022/11/11 03:28:27;;;;;;;15.25;12.10;;;;;;;8.76;100.00;102646.16;1030718;28;20703;-84
2022/11/11 03:29:17;;;;;;;18.48;11.98;;;;;;;8.74;100.00;102648.97;1030418;28;20775;-83
2022/11/11 03:30:07;;;;;;;15.82;11.70;;;;;;;8.76;100.00;102656.78;1031826;28;20694;-83
2022/11/11 03:30:58;;;;;;;16.60;12.63;;;;;;;8.77;100.00;102664.63;1035140;28;20758;-83
2022/11/11 03:31:53;;;;;;;15.60;11.38;;;;;;;8.79;100.00;102659.16;1031393;28;20328;-84
2022/11/11 03:32:43;;;;;;;16.73;10.27;;;;;;;8.78;100.00;102660.97;1029960;28;20333;-83
2022/11/11 03:33:33;;;;;;;18.13;13.70;;;;;;;8.80;100.00;102659.00;1026835;28;20393;-84
2022/11/11 03:34:24;;;;;;;18.70;11.35;;;;;;;8.76;100.00;102652.31;1026529;28;20305;-84
2022/11/11 03:35:14;;;;;;;17.00;11.38;;;;;;;8.76;100.00;102660.28;1031046;28;20419;-83
2022/11/11 03:36:04;;;;;;;16.00;12.32;;;;;;;8.79;100.00;102662.66;1027261;28;20085;-84
2022/11/11 03:38:23;;;;;;;24.83;13.40;;;;;;;8.81;100.00;102665.97;1030037;28;20289;-83
2022/11/11 03:39:14;;;;;;;17.27;11.55;;;;;;;8.80;100.00;102661.66;1026169;28;20294;-83
2022/11/11 03:40:04;;;;;;;14.80;11.95;;;;;;;8.82;100.00;102667.63;1027282;28;20428;-83
2022/11/11 03:40:56;;;;;;;22.45;12.32;;;;;;;8.84;100.00;102663.00;1035189;28;20338;-83
2022/11/11 03:41:46;;;;;;;18.85;12.75;;;;;;;8.85;100.00;102667.31;1037286;28;20291;-85
2022/11/11 03:42:36;;;;;;;16.88;11.05;;;;;;;8.85;100.00;102669.97;1030966;28;20858;-84
2022/11/11 03:43:31;;;;;;;21.55;15.38;;;;;;;8.88;100.00;102667.00;1022152;29;20306;-83
2022/11/11 03:44:21;;;;;;;25.13;14.05;;;;;;;8.84;100.00;102665.66;1023539;29;20101;-84
2022/11/11 03:45:11;;;;;;;14.68;11.60;;;;;;;8.82;100.00;102664.97;1031723;28;20293;-83
2022/11/11 03:46:03;;;;;;;15.35;12.30;;;;;;;8.86;100.00;102673.47;1031064;28;20373;-84
2022/11/11 03:46:54;;;;;;;18.20;12.18;;;;;;;8.82;100.00;102664.97;1027507;28;20434;-83
2022/11/11 03:47:44;;;;;;;21.05;13.45;;;;;;;8.85;100.00;102671.78;1023355;29;20334;-83
2022/11/11 03:48:34;;;;;;;16.33;12.07;;;;;;;8.82;100.00;102662.31;1023360;29;20581;-83
2022/11/11 03:49:24;;;;;;;23.67;14.45;;;;;;;8.80;100.00;102664.31;1026537;28;20409;-84
2022/11/11 03:50:14;;;;;;;18.85;12.50;;;;;;;8.88;100.00;102666.16;1025586;28;20350;-84
2022/11/11 03:51:05;;;;;;;24.63;13.90;;;;;;;8.85;100.00;102667.31;1027095;28;20320;-83
2022/11/11 03:51:54;;;;;;;21.42;12.65;;;;;;;8.86;100.00;102668.16;1030653;28;20308;-84
2022/11/11 03:52:44;;;;;;;17.23;11.57;;;;;;;8.82;100.00;102667.63;1029684;28;20373;-83
2022/11/11 03:53:35;;;;;;;16.08;12.73;;;;;;;8.89;100.00;102673.13;1031331;28;20345;-84
2022/11/11 03:54:25;;;;;;;19.63;12.35;;;;;;;8.86;100.00;102660.16;1034775;28;20982;-84
2022/11/11 03:55:15;;;;;;;18.17;11.18;;;;;;;8.84;100.00;102675.44;1035854;28;20080;-83
2022/11/11 03:56:05;;;;;;;18.15;11.95;;;;;;;8.83;100.00;102669.31;1034843;28;20327;-83
2022/11/11 03:58:06;;;;;;;17.58;12.07;;;;;;;8.85;100.00;102664.66;1034203;28;20065;-83
2022/11/11 03:58:56;;;;;;;16.30;12.65;;;;;;;8.87;100.00;102665.31;1029599;28;20377;-84
2022/11/11 03:59:46;;;;;;;19.40;12.23;;;;;;;8.84;100.00;102665.66;1031300;28;20349;-84
2022/11/11 04:00:37;;;;;;;19.27;12.98;;;;;;;8.84;100.00;102665.66;1031203;28;20664;-83
2022/11/11 04:10:38;;;;;;;25.45;13.93;;;;;;;8.85;100.00;102669.13;1029098;28;20297;-84
2022/11/11 04:11:32;;;;;;;19.98;14.02;;;;;;;8.85;100.00;102675.28;1027607;28;20352;-84
2022/11/11 04:12:26;;;;;;;17.45;12.10;;;;;;;8.86;100.00;102674.28;1025498;28;20333;-83
2022/11/11 04:16:42;;;;;;;18.75;12.70;;;;;;;8.88;100.00;102682.09;1031154;28;20289;-84
2022/11/11 04:17:32;;;;;;;19.77;12.80;;;;;;;8.87;100.00;102678.63;1023476;29;20286;-84
2022/11/11 04:21:42;;;;;;;22.13;13.57;;;;;;;8.86;100.00;102679.59;1023463;29;20310;-83
2022/11/11 04:21:50;;;;;;;20.27;11.80;;;;;;;8.82;100.00;102672.94;1035583;28;20836;-84
2022/11/11 04:22:41;;;;;;;23.60;12.75;;;;;;;8.81;100.00;102679.25;1031309;28;20420;-83
2022/11/11 04:23:31;;;;;;;19.85;13.95;;;;;;;8.83;100.00;102671.97;1027228;28;20361;-83
2022/11/11 04:25:48;;;;;;;18.05;12.15;;;;;;;8.81;100.00;102681.91;1035750;28;20311;-84
2022/11/11 04:26:38;;;;;;;20.92;12.27;;;;;;;8.84;100.00;102681.59;1034517;28;20760;-84
2022/11/11 04:27:28;;;;;;;18.75;11.70;;;;;;;8.90;100.00;102675.63;1031278;28;20312;-84
2022/11/11 04:29:27;;;;;;;22.63;13.57;;;;;;;8.84;100.00;102670.97;1030603;28;20309;-84
2022/11/11 04:30:17;;;;;;;20.13;14.05;;;;;;;8.85;100.00;102677.94;1031252;28;20288;-83
2022/11/11 04:31:07;;;;;;;17.63;13.50;;;;;;;8.87;100.00;102675.94;1031072;28;20422;-84
2022/11/11 04:33:09;;;;;;;19.15;13.73;;;;;;;8.85;100.00;102683.25;1031856;28;20308;-84
2022/11/11 04:33:59;;;;;;;19.42;13.60;;;;;;;8.84;100.00;102675.44;1029176;28;20468;-84
2022/11/11 04:34:52;;;;;;;20.58;14.10;;;;;;;8.85;100.00;102677.94;1031395;28;20320;-84
2022/11/11 04:35:42;;;;;;;16.55;12.55;;;;;;;8.84;100.00;102676.28;1030275;28;20722;-84
2022/11/11 04:36:32;;;;;;;19.05;13.90;;;;;;;8.90;100.00;102675.63;1029479;28;20664;-84
2022/11/11 04:37:23;;;;;;;21.70;12.50;;;;;;;8.85;100.00;102677.94;1027007;28;20316;-82
2022/11/11 04:41:39;;;;;;;20.45;13.32;;;;;;;8.82;100.00;102672.13;1027556;28;20289;-84
2022/11/11 04:42:52;;;;;;;16.40;11.90;;;;;;;8.83;100.00;102673.78;1029944;28;20648;-83
2022/11/11 04:46:00;;;;;;;27.65;12.90;;;;;;;8.82;100.00;102672.94;1029533;28;20300;-84
2022/11/11 04:46:50;;;;;;;18.45;12.27;;;;;;;8.83;100.00;102679.09;1031357;28;20347;-84
2022/11/11 04:48:06;;;;;;;22.95;13.55;;;;;;;8.83;100.00;102682.59;1035358;28;20442;-83
2022/11/11 04:48:56;;;;;;;19.33;12.38;;;;;;;8.80;100.00;102680.25;1031176;28;20375;-84
2022/11/11 04:49:46;;;;;;;16.27;12.10;;;;;;;8.82;100.00;102686.22;1027667;28;20361;-83
2022/11/11 04:50:38;;;;;;;17.30;12.90;;;;;;;8.80;100.00;102674.09;1022880;29;20362;-84
2022/11/11 04:52:25;;;;;;;25.48;13.35;;;;;;;8.78;100.00;102679.56;1023011;29;20333;-84